createdAt,value
2022-12-26T00:02:08.343Z,100584.28
2022-12-26T00:04:51.708Z,100574.50
2022-12-26T00:07:25.034Z,100583.47
2022-12-26T00:09:56.948Z,100586.84
2022-12-26T00:12:28.826Z,100604.38
2022-12-26T00:15:00.688Z,100559.75
2022-12-26T00:17:32.621Z,100559.97
2022-12-26T00:20:05.124Z,100576.94
2022-12-26T00:22:37.049Z,100583.69
2022-12-26T00:25:09.132Z,100576.84
2022-12-26T00:27:41.047Z,100519.31
2022-12-26T00:30:13.171Z,100573.97
2022-12-26T00:32:45.425Z,100553.59
2022-12-26T00:35:17.505Z,100549.84
2022-12-26T00:37:49.505Z,100539.72
2022-12-26T00:40:21.489Z,100454.06
2022-12-26T00:42:53.439Z,100515.47
2022-12-26T00:45:25.408Z,100552.22
2022-12-26T00:47:57.482Z,100535.84
2022-12-26T00:50:34.404Z,100555.28
2022-12-26T00:53:07.022Z,100530.91
2022-12-26T00:55:39.210Z,100543.06
2022-12-26T00:58:11.267Z,100506.50
2022-12-26T01:00:43.378Z,100521.06
2022-12-26T01:03:16.007Z,100562.13
2022-12-26T01:05:51.955Z,100560.22
2022-12-26T01:08:24.974Z,100537.56
2022-12-26T01:10:57.577Z,100503.75
2022-12-26T01:13:29.515Z,100475.56
2022-12-26T01:16:01.694Z,100516.19
2022-12-26T01:18:34.587Z,100513.22
2022-12-26T01:21:10.889Z,100524.25
2022-12-26T01:23:43.896Z,100518.63
2022-12-26T01:26:20.116Z,100488.22
2022-12-26T01:28:53.080Z,100489.63
2022-12-26T01:31:25.064Z,100493.06
2022-12-26T01:33:57.106Z,100472.34
2022-12-26T01:36:29.209Z,100518.19
2022-12-26T01:39:01.342Z,100522.63
2022-12-26T01:41:33.496Z,100519.84
2022-12-26T01:44:27.012Z,100524.63
2022-12-26T01:46:59.048Z,100510.09
2022-12-26T01:49:41.205Z,100481.75
2022-12-26T01:52:20.429Z,100500.97
2022-12-26T01:54:55.173Z,100511.72
2022-12-26T01:57:40.299Z,100511.78
2022-12-26T02:00:13.271Z,100512.34
2022-12-26T02:03:04.150Z,100521.53
2022-12-26T02:05:36.587Z,100485.03
2022-12-26T02:08:24.466Z,100491.47
2022-12-26T02:11:08.323Z,100495.31
2022-12-26T02:13:41.780Z,100506.19
2022-12-26T02:16:17.010Z,100522.56
2022-12-26T02:18:49.048Z,100474.22
2022-12-26T02:21:23.783Z,100506.25
2022-12-26T02:24:01.707Z,100511.47
2022-12-26T02:26:36.535Z,100517.44
2022-12-26T02:29:08.440Z,100506.13
2022-12-26T02:31:49.234Z,100501.03
2022-12-26T02:34:21.070Z,100501.13
2022-12-26T02:37:23.612Z,100494.13
2022-12-26T02:40:01.862Z,100475.50
2022-12-26T02:42:52.410Z,100468.59
2022-12-26T02:46:02.097Z,100451.63
2022-12-26T02:48:42.901Z,100437.97
2022-12-26T02:51:33.346Z,100424.50
2022-12-26T02:54:45.904Z,100417.03
2022-12-26T02:57:41.246Z,100396.78
2022-12-26T03:00:37.925Z,100398.03
2022-12-26T03:03:36.187Z,100383.94
2022-12-26T03:06:38.467Z,100381.25
2022-12-26T03:09:40.800Z,100378.47
2022-12-26T03:12:37.175Z,100377.28
2022-12-26T03:15:13.841Z,100369.41
2022-12-26T03:17:54.886Z,100381.50
2022-12-26T03:20:35.298Z,100390.81
2022-12-26T03:23:12.238Z,100379.97
2022-12-26T03:26:10.739Z,100386.00
2022-12-26T03:28:43.725Z,100379.25
2022-12-26T03:31:17.000Z,100381.84
2022-12-26T03:34:07.288Z,100370.19
2022-12-26T03:37:03.866Z,100370.34
2022-12-26T03:40:05.658Z,100369.31
2022-12-26T03:43:19.341Z,100374.13
2022-12-26T03:46:21.963Z,100352.84
2022-12-26T03:49:27.287Z,100346.66
2022-12-26T03:52:57.226Z,100335.63
2022-12-26T03:55:52.280Z,100334.91
2022-12-26T03:58:48.920Z,100303.56
2022-12-26T04:01:48.697Z,100319.75
2022-12-26T04:04:42.027Z,100300.69
2022-12-26T04:07:56.782Z,100305.13
2022-12-26T04:10:56.244Z,100301.03
2022-12-26T04:14:11.451Z,100273.50
2022-12-26T04:17:24.382Z,100267.66
2022-12-26T04:20:09.625Z,100264.13
2022-12-26T04:23:11.039Z,100257.03
2022-12-26T04:26:09.355Z,100264.06
2022-12-26T04:29:00.148Z,100272.88
2022-12-26T04:31:55.798Z,100270.09
2022-12-26T04:34:57.877Z,100252.88
2022-12-26T04:37:51.500Z,100219.69
2022-12-26T04:40:48.152Z,100229.63
2022-12-26T04:43:50.391Z,100210.44
2022-12-26T04:46:26.392Z,100232.19
2022-12-26T04:49:18.875Z,100221.97
2022-12-26T04:51:51.631Z,100220.03
2022-12-26T04:54:24.050Z,100150.00
2022-12-26T04:56:56.057Z,100200.16
2022-12-26T04:59:28.808Z,100192.31
2022-12-26T05:02:19.644Z,100190.00
2022-12-26T05:05:10.306Z,100210.09
2022-12-26T05:08:01.591Z,100193.22
2022-12-26T05:10:33.685Z,100186.41
2022-12-26T05:13:05.673Z,100163.06
2022-12-26T05:15:57.682Z,100162.16
2022-12-26T05:18:48.092Z,100121.97
2022-12-26T05:21:38.833Z,100100.16
2022-12-26T05:24:29.839Z,100111.53
2022-12-26T05:27:20.817Z,100120.72
2022-12-26T05:29:53.082Z,100125.34
2022-12-26T05:32:43.680Z,100126.13
2022-12-26T05:35:15.655Z,100102.22
2022-12-26T05:37:47.653Z,100103.53
2022-12-26T05:40:19.655Z,100117.34
2022-12-26T05:42:51.714Z,100114.72
2022-12-26T05:45:23.810Z,100132.94
2022-12-26T05:48:00.755Z,100132.66
2022-12-26T05:50:32.714Z,100147.75
2022-12-26T05:53:04.878Z,100148.31
2022-12-26T05:55:36.998Z,100116.16
2022-12-26T05:58:09.215Z,100094.75
2022-12-26T06:00:41.181Z,100127.72
2022-12-26T06:03:13.427Z,100133.19
2022-12-26T06:05:45.515Z,100144.56
2022-12-26T06:08:17.441Z,100127.78
2022-12-26T06:10:49.533Z,100118.59
2022-12-26T06:13:21.689Z,100147.38
2022-12-26T06:15:53.744Z,100132.66
2022-12-26T06:18:26.200Z,100127.34
2022-12-26T06:20:58.152Z,100105.03
2022-12-26T06:23:30.144Z,100093.16
2022-12-26T06:26:02.692Z,100092.66
2022-12-26T06:28:35.472Z,100042.03
2022-12-26T06:31:16.575Z,100076.09
2022-12-26T06:33:55.485Z,100093.72
2022-12-26T06:36:29.056Z,100078.72
2022-12-26T06:39:01.564Z,100047.47
2022-12-26T06:41:33.499Z,100086.44
2022-12-26T06:44:05.698Z,100056.28
2022-12-26T06:46:37.849Z,100082.88
2022-12-26T06:49:09.832Z,100081.09
2022-12-26T06:51:41.869Z,100076.56
2022-12-26T06:54:13.848Z,100066.22
2022-12-26T06:56:45.796Z,100063.63
2022-12-26T06:59:18.233Z,100066.03
2022-12-26T07:01:50.355Z,100060.34
2022-12-26T07:04:22.464Z,100071.19
2022-12-26T07:06:54.448Z,100060.53
2022-12-26T07:09:33.185Z,100054.25
2022-12-26T07:12:06.582Z,100025.59
2022-12-26T07:14:38.588Z,100027.41
2022-12-26T07:17:11.044Z,100025.91
2022-12-26T07:19:42.982Z,99995.22
2022-12-26T07:22:14.939Z,99966.69
2022-12-26T07:24:46.857Z,100022.19
2022-12-26T07:27:18.892Z,100023.56
2022-12-26T07:29:51.051Z,100058.56
2022-12-26T07:32:23.115Z,99948.63
2022-12-26T07:34:55.101Z,100025.06
2022-12-26T07:37:27.126Z,100014.66
2022-12-26T07:39:59.558Z,99997.09
2022-12-26T07:42:31.655Z,100010.53
2022-12-26T07:45:03.968Z,100022.88
2022-12-26T07:47:35.967Z,99991.03
2022-12-26T07:50:08.427Z,100013.97
2022-12-26T07:52:40.395Z,100008.81
2022-12-26T07:55:12.333Z,100012.59
2022-12-26T07:57:48.863Z,99996.88
2022-12-26T08:00:23.130Z,99995.50
2022-12-26T08:02:57.569Z,99995.19
2022-12-26T08:05:31.727Z,99970.69
2022-12-26T08:08:04.208Z,100021.03
2022-12-26T08:10:36.276Z,100015.59
2022-12-26T08:13:08.485Z,100022.72
2022-12-26T08:15:41.479Z,100025.59
2022-12-26T08:18:13.397Z,99984.38
2022-12-26T08:20:45.400Z,100001.91
2022-12-26T08:23:17.852Z,100033.06
2022-12-26T08:25:49.819Z,100034.97
2022-12-26T08:28:21.865Z,100028.25
2022-12-26T08:30:53.787Z,99995.31
2022-12-26T08:33:26.605Z,99999.66
2022-12-26T08:36:06.337Z,99992.75
2022-12-26T08:38:38.885Z,100010.63
2022-12-26T08:41:11.136Z,99992.53
2022-12-26T08:44:24.908Z,99985.81
2022-12-26T08:46:35.929Z,99973.50
2022-12-26T08:49:07.945Z,99964.56
2022-12-26T08:51:40.196Z,99926.59
2022-12-26T08:54:12.125Z,99945.22
2022-12-26T08:56:44.269Z,99953.13
2022-12-26T08:59:16.536Z,99956.53
2022-12-26T09:01:48.866Z,99946.25
2022-12-26T09:04:20.936Z,99919.06
2022-12-26T09:06:52.969Z,99943.34
2022-12-26T09:09:24.906Z,99948.16
2022-12-26T09:11:56.865Z,99949.63
2022-12-26T09:14:28.833Z,99903.41
2022-12-26T09:17:00.834Z,99974.97
2022-12-26T09:19:32.860Z,99880.97
2022-12-26T09:22:23.721Z,99951.22
2022-12-26T09:24:55.486Z,99940.41
2022-12-26T09:27:29.323Z,99948.31
2022-12-26T09:30:01.488Z,99905.72
2022-12-26T09:32:35.414Z,99936.16
2022-12-26T09:35:08.085Z,99923.19
2022-12-26T09:37:40.014Z,99913.63
2022-12-26T09:40:22.466Z,99926.13
2022-12-26T09:43:09.769Z,99922.66
2022-12-26T09:46:07.413Z,99892.06
2022-12-26T09:49:25.877Z,99903.50
2022-12-26T09:52:03.398Z,99908.59
2022-12-26T09:54:40.775Z,99881.63
2022-12-26T09:57:17.621Z,99854.69
2022-12-26T09:59:57.323Z,99915.56
2022-12-26T10:02:29.638Z,99888.69
2022-12-26T10:05:01.888Z,99901.50
2022-12-26T10:07:43.007Z,99913.34
2022-12-26T10:10:50.783Z,99910.41
2022-12-26T10:13:59.799Z,99913.19
2022-12-26T10:17:15.092Z,99880.75
2022-12-26T10:20:05.312Z,99906.84
2022-12-26T10:22:52.426Z,99906.31
2022-12-26T10:25:47.587Z,99901.44
2022-12-26T10:28:34.627Z,99888.09
2022-12-26T10:31:13.905Z,99909.19
2022-12-26T10:33:59.041Z,99900.09
2022-12-26T10:36:39.848Z,99849.25
2022-12-26T10:39:23.392Z,99885.63
2022-12-26T10:42:00.156Z,99887.66
2022-12-26T10:44:32.135Z,99864.75
2022-12-26T10:47:09.960Z,99866.88
2022-12-26T10:49:45.416Z,99871.56
2022-12-26T10:52:20.881Z,99864.47
2022-12-26T10:55:28.466Z,99873.00
2022-12-26T10:57:53.291Z,99876.22
2022-12-26T11:00:27.738Z,99811.31
2022-12-26T11:03:09.038Z,99862.22
2022-12-26T11:08:56.137Z,99847.91
2022-12-26T11:14:33.227Z,99837.47
2022-12-26T11:17:13.095Z,99839.28
2022-12-26T11:19:45.148Z,99840.56
2022-12-26T11:22:29.226Z,99840.72
2022-12-26T11:25:10.334Z,99851.22
2022-12-26T11:27:45.325Z,99833.03
2022-12-26T11:30:28.586Z,99837.31
2022-12-26T11:33:17.098Z,99827.69
2022-12-26T11:35:55.194Z,99845.94
2022-12-26T11:38:44.568Z,99821.94
2022-12-26T11:41:40.149Z,99840.16
2022-12-26T11:44:20.530Z,99850.22
2022-12-26T11:46:58.233Z,99846.78
2022-12-26T11:49:35.107Z,99827.13
2022-12-26T11:52:31.804Z,99827.88
2022-12-26T11:55:22.473Z,99827.66
2022-12-26T11:58:24.041Z,99810.72
2022-12-26T12:01:02.083Z,99823.13
2022-12-26T12:03:50.050Z,99830.19
2022-12-26T12:06:56.718Z,99820.34
2022-12-26T12:10:03.337Z,99818.88
2022-12-26T12:12:50.604Z,99811.84
2022-12-26T12:15:31.876Z,99819.50
2022-12-26T12:18:20.735Z,99809.78
2022-12-26T12:20:55.433Z,99814.72
2022-12-26T12:24:01.864Z,99810.69
2022-12-26T12:26:54.910Z,99808.44
2022-12-26T12:29:47.973Z,99810.72
2022-12-26T12:32:31.617Z,99822.72
2022-12-26T12:35:03.499Z,99813.19
2022-12-26T12:37:44.442Z,99812.16
2022-12-26T12:40:22.584Z,99809.03
2022-12-26T12:43:15.156Z,99787.84
2022-12-26T12:46:08.934Z,99802.44
2022-12-26T12:48:52.846Z,99791.66
2022-12-26T12:51:48.981Z,99803.97
2022-12-26T12:55:00.926Z,99813.88
2022-12-26T12:58:06.526Z,99817.88
2022-12-26T13:00:47.862Z,99811.78
2022-12-26T13:03:30.621Z,99819.13
2022-12-26T13:06:08.509Z,99815.69
2022-12-26T13:08:41.910Z,99805.81
2022-12-26T13:11:38.763Z,99810.31
2022-12-26T13:14:22.603Z,99807.44
2022-12-26T13:16:58.746Z,99817.44
2022-12-26T13:19:41.357Z,99815.91
2022-12-26T13:22:57.727Z,99813.34
2022-12-26T13:25:37.063Z,99819.06
2022-12-26T13:28:18.321Z,99806.25
2022-12-26T13:30:55.177Z,99795.59
2022-12-26T13:33:27.637Z,99818.78
2022-12-26T13:36:02.029Z,99797.25
2022-12-26T13:38:58.937Z,99824.88
2022-12-26T13:41:51.282Z,99824.88
2022-12-26T13:44:23.321Z,99832.84
2022-12-26T13:46:58.155Z,99830.25
2022-12-26T13:49:39.268Z,99819.72
2022-12-26T13:52:11.161Z,99833.78
2022-12-26T13:55:06.251Z,99772.25
2022-12-26T13:57:45.152Z,99826.84
2022-12-26T14:00:18.591Z,99836.38
2022-12-26T14:03:24.472Z,99825.53
2022-12-26T14:06:31.600Z,99825.28
2022-12-26T14:09:29.029Z,99821.91
2022-12-26T14:12:25.060Z,99826.22
2022-12-26T14:15:24.417Z,99823.75
2022-12-26T14:17:59.513Z,99823.44
2022-12-26T14:20:43.232Z,99811.44
2022-12-26T14:23:33.815Z,99820.94
2022-12-26T14:26:05.739Z,99827.47
2022-12-26T14:29:02.631Z,99819.91
2022-12-26T14:31:57.543Z,99806.84
2022-12-26T14:34:48.008Z,99808.63
2022-12-26T14:37:25.519Z,99815.13
2022-12-26T14:39:57.318Z,99803.72
2022-12-26T14:42:48.998Z,99783.03
2022-12-26T14:45:29.672Z,99804.13
2022-12-26T14:48:02.515Z,99813.13
2022-12-26T14:50:35.745Z,99825.53
2022-12-26T14:53:28.587Z,99825.25
2022-12-26T14:56:02.104Z,99828.34
2022-12-26T14:58:47.020Z,99815.13
2022-12-26T15:01:25.061Z,99821.03
2022-12-26T15:04:19.723Z,99832.09
2022-12-26T15:07:06.807Z,99836.13
2022-12-26T15:09:48.811Z,99828.56
2022-12-26T15:13:15.168Z,99829.00
2022-12-26T15:15:47.271Z,99835.91
2022-12-26T15:18:56.944Z,99832.19
2022-12-26T15:21:34.863Z,99835.72
2022-12-26T15:25:08.392Z,99830.25
2022-12-26T15:28:09.435Z,99840.47
2022-12-26T15:31:10.666Z,99822.59
2022-12-26T15:33:52.172Z,99800.78
2022-12-26T15:37:15.094Z,99813.41
2022-12-26T15:39:56.536Z,99818.88
2022-12-26T15:42:55.837Z,99828.91
2022-12-26T15:45:52.545Z,99820.22
2022-12-26T15:48:49.895Z,99816.41
2022-12-26T15:51:38.189Z,99805.31
2022-12-26T15:54:18.980Z,99808.53
2022-12-26T15:56:55.564Z,99809.44
2022-12-26T16:00:00.975Z,99811.00
2022-12-26T16:02:38.936Z,99802.53
2022-12-26T16:05:10.980Z,99798.31
2022-12-26T16:07:56.037Z,99801.00
2022-12-26T16:10:36.225Z,99793.34
2022-12-26T16:13:13.881Z,99801.41
2022-12-26T16:15:49.425Z,99799.56
2022-12-26T16:18:26.707Z,99809.56
2022-12-26T16:21:24.021Z,99806.69
2022-12-26T16:23:57.612Z,99807.38
2022-12-26T16:26:32.644Z,99809.78
2022-12-26T16:29:05.609Z,99796.53
2022-12-26T16:31:37.778Z,99792.72
2022-12-26T16:34:29.217Z,99799.56
2022-12-26T16:37:01.271Z,99790.13
2022-12-26T16:39:33.216Z,99801.28
2022-12-26T16:42:07.667Z,99799.84
2022-12-26T16:44:43.423Z,99816.50
2022-12-26T16:47:16.644Z,99804.09
2022-12-26T16:49:49.003Z,99811.44
2022-12-26T16:52:39.238Z,99821.28
2022-12-26T16:55:29.465Z,99804.63
2022-12-26T16:58:05.060Z,99794.28
2022-12-26T17:00:37.200Z,99774.00
2022-12-26T17:03:20.511Z,99804.63
2022-12-26T17:05:52.519Z,99779.69
2022-12-26T17:08:24.972Z,99750.63
2022-12-26T17:10:57.448Z,99792.63
2022-12-26T17:13:29.651Z,99779.47
2022-12-26T17:16:05.517Z,99770.59
2022-12-26T17:18:54.091Z,99795.59
2022-12-26T17:21:32.154Z,99781.88
2022-12-26T17:24:10.128Z,99791.06
2022-12-26T17:26:43.957Z,99785.69
2022-12-26T17:29:36.188Z,99790.84
2022-12-26T17:32:09.129Z,99794.06
2022-12-26T17:34:41.814Z,99785.69
2022-12-26T17:37:22.928Z,99795.41
2022-12-26T17:40:16.090Z,99782.69
2022-12-26T17:42:51.327Z,99788.19
2022-12-26T17:45:26.172Z,99785.59
2022-12-26T17:47:59.029Z,99789.63
2022-12-26T17:50:37.132Z,99793.03
2022-12-26T17:53:33.856Z,99796.97
2022-12-26T17:56:11.192Z,99795.19
2022-12-26T17:58:44.718Z,99794.16
2022-12-26T18:01:20.978Z,99794.47
2022-12-26T18:03:54.136Z,99780.22
2022-12-26T18:06:26.301Z,99793.53
2022-12-26T18:08:58.613Z,99778.34
2022-12-26T18:11:30.588Z,99737.94
2022-12-26T18:14:02.520Z,99791.69
2022-12-26T18:16:34.852Z,99789.81
2022-12-26T18:19:06.808Z,99777.91
2022-12-26T18:21:38.834Z,99772.03
2022-12-26T18:24:11.045Z,99788.25
2022-12-26T18:26:43.705Z,99734.72
2022-12-26T18:29:15.692Z,99730.25
2022-12-26T18:31:47.716Z,99791.47
2022-12-26T18:34:19.878Z,99790.03
2022-12-26T18:36:51.822Z,99756.66
2022-12-26T18:39:23.765Z,99791.47
2022-12-26T18:41:55.708Z,99797.66
2022-12-26T18:44:27.683Z,99779.28
2022-12-26T18:46:59.612Z,99798.19
2022-12-26T18:49:31.628Z,99797.03
2022-12-26T18:52:03.785Z,99773.25
2022-12-26T18:54:36.822Z,99813.69
2022-12-26T18:57:16.524Z,99819.50
2022-12-26T18:59:48.727Z,99801.91
2022-12-26T19:02:20.850Z,99816.19
2022-12-26T19:04:52.796Z,99799.97
2022-12-26T19:07:24.744Z,99803.06
2022-12-26T19:09:58.411Z,99808.13
2022-12-26T19:12:30.378Z,99799.44
2022-12-26T19:15:02.597Z,99807.59
2022-12-26T19:17:35.354Z,99805.25
2022-12-26T19:20:10.135Z,99808.13
2022-12-26T19:22:42.149Z,99808.22
2022-12-26T19:25:14.552Z,99813.59
2022-12-26T19:27:47.450Z,99822.19
2022-12-26T19:30:20.766Z,99803.06
2022-12-26T19:32:52.670Z,99812.03
2022-12-26T19:35:24.803Z,99798.81
2022-12-26T19:37:58.537Z,99822.91
2022-12-26T19:40:30.565Z,99810.31
2022-12-26T19:43:02.610Z,99817.22
2022-12-26T19:45:34.628Z,99830.47
2022-12-26T19:48:06.896Z,99838.22
2022-12-26T19:50:38.810Z,99842.25
2022-12-26T19:53:10.773Z,99838.00
2022-12-26T19:55:42.750Z,99844.72
2022-12-26T19:58:14.678Z,99848.56
2022-12-26T20:00:47.006Z,99851.69
2022-12-26T20:03:19.065Z,99860.47
2022-12-26T20:05:51.073Z,99855.41
2022-12-26T20:08:23.035Z,99862.00
2022-12-26T20:11:00.599Z,99847.72
2022-12-26T20:13:33.015Z,99868.97
2022-12-26T20:16:14.530Z,99877.41
2022-12-26T20:18:55.987Z,99869.25
2022-12-26T20:21:27.962Z,99811.72
2022-12-26T20:24:01.464Z,99866.78
2022-12-26T20:26:33.455Z,99867.47
2022-12-26T20:29:05.871Z,99880.22
2022-12-26T20:31:39.704Z,99855.81
2022-12-26T20:34:12.328Z,99881.16
2022-12-26T20:36:44.400Z,99883.00
2022-12-26T20:39:19.381Z,99892.94
2022-12-26T20:41:51.345Z,99876.38
2022-12-26T20:44:24.772Z,99838.31
2022-12-26T20:46:56.697Z,99875.56
2022-12-26T20:49:29.465Z,99880.34
2022-12-26T20:52:01.677Z,99869.25
2022-12-26T20:54:33.848Z,99869.94
2022-12-26T20:57:05.765Z,99873.28
2022-12-26T20:59:37.876Z,99883.72
2022-12-26T21:02:13.388Z,99892.28
2022-12-26T21:04:45.565Z,99896.81
2022-12-26T21:07:17.454Z,99864.56
2022-12-26T21:09:49.393Z,99889.25
2022-12-26T21:12:21.252Z,99885.66
2022-12-26T21:14:53.184Z,99895.88
2022-12-26T21:17:25.067Z,99912.13
2022-12-26T21:19:56.922Z,99881.13
2022-12-26T21:22:28.881Z,99862.28
2022-12-26T21:25:00.731Z,99919.66
2022-12-26T21:27:32.661Z,99905.91
2022-12-26T21:30:04.935Z,99910.16
2022-12-26T21:32:37.982Z,99919.25
2022-12-26T21:35:09.843Z,99891.59
2022-12-26T21:37:53.973Z,99907.88
2022-12-26T21:40:27.879Z,99874.13
2022-12-26T21:42:59.801Z,99881.47
2022-12-26T21:45:31.705Z,99909.19
2022-12-26T21:48:03.849Z,99902.69
2022-12-26T21:50:36.531Z,99912.38
2022-12-26T21:53:08.546Z,99907.94
2022-12-26T21:55:40.536Z,99876.38
2022-12-26T21:58:12.451Z,99872.53
2022-12-26T22:00:45.498Z,99890.53
2022-12-26T22:03:36.370Z,99888.44
2022-12-26T22:06:14.785Z,99919.97
2022-12-26T22:08:46.774Z,99902.66
2022-12-26T22:11:37.876Z,99910.94
2022-12-26T22:14:10.127Z,99926.66
2022-12-26T22:16:42.135Z,99913.94
2022-12-26T22:19:14.073Z,99901.91
2022-12-26T22:21:46.093Z,99911.59
2022-12-26T22:24:18.040Z,99915.44
2022-12-26T22:26:50.220Z,99923.00
2022-12-26T22:29:22.081Z,99911.25
2022-12-26T22:31:58.632Z,99921.66
2022-12-26T22:34:30.591Z,99904.91
2022-12-26T22:37:02.467Z,99884.34
2022-12-26T22:39:34.419Z,99866.78
2022-12-26T22:42:06.416Z,99899.13
2022-12-26T22:44:38.414Z,99890.19
2022-12-26T22:47:10.373Z,99909.53
2022-12-26T22:49:42.311Z,99899.75
2022-12-26T22:52:16.122Z,99910.16
2022-12-26T22:54:48.172Z,99914.22
2022-12-26T22:57:20.649Z,99889.25
2022-12-26T23:00:09.757Z,99880.38
2022-12-26T23:02:42.520Z,99894.28
2022-12-26T23:05:14.892Z,99910.00
2022-12-26T23:07:47.473Z,99922.72
2022-12-26T23:10:23.506Z,99910.00
2022-12-26T23:12:56.167Z,99910.78
2022-12-26T23:15:29.183Z,99916.44
2022-12-26T23:18:40.367Z,99919.16
2022-12-26T23:21:42.644Z,99916.78
2022-12-26T23:24:17.834Z,99907.13
2022-12-26T23:26:52.773Z,99912.88
2022-12-26T23:29:43.408Z,99907.31
2022-12-26T23:32:15.377Z,99889.22
2022-12-26T23:34:47.325Z,99881.38
2022-12-26T23:37:19.832Z,99888.22
2022-12-26T23:39:51.771Z,99883.81
2022-12-26T23:42:23.616Z,99850.09
2022-12-26T23:44:55.476Z,99882.72
2022-12-26T23:47:27.690Z,99884.94
2022-12-26T23:49:59.516Z,99886.19
2022-12-26T23:52:31.738Z,99870.19
2022-12-26T23:55:04.302Z,99893.94
2022-12-26T23:57:36.198Z,99884.19
